createdAt,value
2019-03-19T00:00:13.062Z,3.93
2019-03-19T00:02:41.704Z,3.53
2019-03-19T00:05:10.425Z,4.43
2019-03-19T00:07:39.216Z,4.47
2019-03-19T00:10:09.142Z,4.40
2019-03-19T00:12:37.758Z,4.20
2019-03-19T00:15:08.799Z,4.43
2019-03-19T00:17:37.371Z,4.90
2019-03-19T00:20:09.532Z,3.43
2019-03-19T00:22:38.101Z,4.23
2019-03-19T00:25:07.319Z,4.20
2019-03-19T00:27:35.966Z,3.47
2019-03-19T00:30:06.674Z,3.30
2019-03-19T00:32:35.251Z,3.90
2019-03-19T00:35:05.486Z,3.67
2019-03-19T00:37:34.080Z,4.23
2019-03-19T00:40:02.664Z,5.07
2019-03-19T00:42:31.230Z,4.13
2019-03-19T00:44:59.836Z,4.17
2019-03-19T00:47:28.393Z,4.00
2019-03-19T00:49:56.982Z,4.10
2019-03-19T00:52:25.486Z,4.00
2019-03-19T00:54:54.066Z,4.13
2019-03-19T00:57:22.641Z,4.67
2019-03-19T00:59:51.183Z,3.40
2019-03-19T01:02:19.720Z,3.60
2019-03-19T01:04:48.377Z,3.97
2019-03-19T01:07:16.941Z,3.57
2019-03-19T01:09:45.542Z,3.90
2019-03-19T01:12:14.115Z,3.80
2019-03-19T01:14:42.695Z,3.80
2019-03-19T01:17:11.270Z,3.50
2019-03-19T01:19:39.858Z,4.00
2019-03-19T01:22:08.438Z,4.13
2019-03-19T01:24:37.026Z,4.67
2019-03-19T01:27:05.666Z,3.73
2019-03-19T01:29:34.250Z,3.63
2019-03-19T01:32:02.810Z,5.43
2019-03-19T01:34:31.409Z,4.93
2019-03-19T01:36:59.971Z,3.80
2019-03-19T01:39:28.545Z,5.23
2019-03-19T01:41:57.058Z,3.47
2019-03-19T01:44:25.651Z,5.17
2019-03-19T01:46:54.277Z,3.67
2019-03-19T01:49:22.848Z,3.90
2019-03-19T01:51:51.365Z,4.77
2019-03-19T01:54:19.850Z,4.43
2019-03-19T01:56:48.367Z,4.40
2019-03-19T01:59:16.948Z,4.23
2019-03-19T02:01:45.537Z,4.33
2019-03-19T02:04:14.114Z,4.00
2019-03-19T02:06:42.687Z,4.90
2019-03-19T02:09:11.171Z,5.17
2019-03-19T02:11:39.758Z,5.00
2019-03-19T02:14:08.250Z,4.57
2019-03-19T02:16:36.835Z,5.47
2019-03-19T02:19:05.390Z,4.70
2019-03-19T02:21:33.976Z,5.07
2019-03-19T02:24:02.539Z,3.93
2019-03-19T02:26:31.138Z,4.83
2019-03-19T02:28:59.710Z,4.50
2019-03-19T02:31:28.300Z,4.70
2019-03-19T02:33:56.868Z,4.07
2019-03-19T02:36:25.469Z,4.03
2019-03-19T02:38:54.028Z,4.10
2019-03-19T02:41:22.612Z,5.33
2019-03-19T02:43:51.199Z,4.00
2019-03-19T02:46:19.779Z,5.37
2019-03-19T02:48:48.355Z,4.83
2019-03-19T02:51:17.021Z,4.63
2019-03-19T02:53:45.613Z,6.07
2019-03-19T02:56:14.197Z,4.77
2019-03-19T02:58:42.765Z,5.40
2019-03-19T03:01:11.362Z,4.83
2019-03-19T03:03:39.946Z,4.47
2019-03-19T03:06:08.519Z,5.57
2019-03-19T03:08:37.085Z,4.30
2019-03-19T03:11:05.665Z,3.97
2019-03-19T03:13:34.303Z,5.13
2019-03-19T03:16:02.882Z,4.23
2019-03-19T03:18:31.475Z,4.93
2019-03-19T03:21:00.055Z,5.50
2019-03-19T03:23:28.628Z,4.20
2019-03-19T03:25:57.215Z,4.80
2019-03-19T03:28:25.780Z,4.97
2019-03-19T03:30:54.368Z,4.33
2019-03-19T03:33:22.927Z,4.17
2019-03-19T03:35:51.522Z,4.87
2019-03-19T03:38:20.093Z,5.40
2019-03-19T03:40:48.678Z,4.77
2019-03-19T03:43:17.180Z,4.67
2019-03-19T03:45:45.775Z,4.70
2019-03-19T03:48:14.347Z,4.50
2019-03-19T03:50:42.942Z,5.37
2019-03-19T03:53:11.509Z,5.47
2019-03-19T03:55:40.073Z,4.70
2019-03-19T03:58:08.658Z,6.43
2019-03-19T04:00:37.239Z,5.13
2019-03-19T04:03:05.953Z,5.17
2019-03-19T04:05:34.586Z,5.67
2019-03-19T04:08:03.242Z,5.33
2019-03-19T04:10:31.800Z,4.83
2019-03-19T04:13:00.379Z,5.53
2019-03-19T04:15:28.890Z,4.17
2019-03-19T04:17:57.471Z,5.80
2019-03-19T04:20:26.044Z,5.30
2019-03-19T04:22:54.636Z,4.57
2019-03-19T04:25:23.196Z,4.67
2019-03-19T04:27:51.800Z,4.80
2019-03-19T04:30:20.919Z,5.27
2019-03-19T04:32:49.496Z,4.60
2019-03-19T04:35:18.147Z,4.97
2019-03-19T04:37:46.720Z,5.20
2019-03-19T04:40:15.905Z,4.57
2019-03-19T04:42:45.545Z,5.13
2019-03-19T04:45:15.149Z,5.37
2019-03-19T04:47:46.050Z,5.53
2019-03-19T04:50:16.611Z,6.30
2019-03-19T04:52:45.279Z,5.20
2019-03-19T04:55:15.769Z,4.90
2019-03-19T04:57:44.406Z,6.33
2019-03-19T05:00:17.729Z,6.13
2019-03-19T05:02:46.446Z,5.63
2019-03-19T05:05:15.011Z,5.07
2019-03-19T05:07:43.679Z,5.43
2019-03-19T05:10:15.758Z,6.33
2019-03-19T05:12:44.343Z,6.27
2019-03-19T05:15:12.985Z,5.17
2019-03-19T05:17:41.562Z,5.77
2019-03-19T05:20:11.666Z,6.13
2019-03-19T05:22:40.193Z,7.23
2019-03-19T05:25:09.596Z,6.60
2019-03-19T05:27:38.178Z,7.10
2019-03-19T05:30:15.445Z,5.53
2019-03-19T05:32:44.021Z,6.63
2019-03-19T05:35:13.706Z,6.07
2019-03-19T05:37:42.305Z,6.67
2019-03-19T05:40:12.090Z,6.43
2019-03-19T05:42:40.671Z,5.30
2019-03-19T05:45:11.103Z,6.47
2019-03-19T05:47:40.703Z,6.67
2019-03-19T05:50:20.423Z,6.10
2019-03-19T05:52:48.974Z,7.67
2019-03-19T05:55:17.583Z,14.80
2019-03-19T05:57:50.056Z,32.60
2019-03-19T06:00:19.196Z,30.27
2019-03-19T06:02:47.914Z,8.33
2019-03-19T06:05:16.485Z,7.50
2019-03-19T06:07:45.150Z,7.53
2019-03-19T06:10:14.454Z,8.97
2019-03-19T06:12:43.029Z,7.83
2019-03-19T06:15:16.417Z,6.87
2019-03-19T06:17:45.001Z,7.13
2019-03-19T06:20:17.847Z,6.80
2019-03-19T06:22:46.507Z,5.37
2019-03-19T06:25:15.251Z,5.83
2019-03-19T06:27:43.938Z,6.80
2019-03-19T06:30:17.224Z,5.53
2019-03-19T06:32:45.880Z,7.30
2019-03-19T06:35:15.383Z,6.57
2019-03-19T06:37:43.958Z,6.33
2019-03-19T06:40:16.504Z,6.70
2019-03-19T06:42:45.090Z,6.13
2019-03-19T06:45:17.062Z,5.67
2019-03-19T06:47:45.821Z,6.27
2019-03-19T06:50:17.394Z,4.80
2019-03-19T06:52:47.216Z,5.13
2019-03-19T06:55:16.994Z,4.90
2019-03-19T06:57:46.994Z,5.00
2019-03-19T07:00:22.582Z,6.83
2019-03-19T07:02:52.783Z,5.63
2019-03-19T07:05:21.985Z,7.67
2019-03-19T07:07:51.405Z,5.60
2019-03-19T07:10:23.075Z,4.83
2019-03-19T07:12:51.610Z,5.50
2019-03-19T07:15:23.888Z,5.43
2019-03-19T07:17:52.650Z,5.30
2019-03-19T07:20:25.305Z,5.80
2019-03-19T07:22:55.891Z,5.50
2019-03-19T07:25:24.121Z,6.20
2019-03-19T07:27:52.719Z,6.00
2019-03-19T07:30:25.384Z,5.17
2019-03-19T07:32:53.959Z,5.70
2019-03-19T07:35:22.589Z,5.40
2019-03-19T07:37:51.082Z,6.27
2019-03-19T07:40:19.670Z,4.90
2019-03-19T07:42:48.168Z,6.57
2019-03-19T07:45:25.987Z,6.13
2019-03-19T07:47:54.636Z,7.03
2019-03-19T07:50:24.059Z,6.03
2019-03-19T07:52:53.085Z,5.70
2019-03-19T07:55:21.666Z,6.23
2019-03-19T07:57:50.235Z,5.53
2019-03-19T08:00:19.553Z,17.67
2019-03-19T08:02:48.123Z,6.40
2019-03-19T08:05:16.714Z,5.67
2019-03-19T08:07:45.381Z,16.77
2019-03-19T08:10:17.701Z,8.13
2019-03-19T08:12:46.404Z,6.87
2019-03-19T08:15:15.939Z,5.23
2019-03-19T08:17:44.586Z,5.10
2019-03-19T08:20:18.331Z,6.63
2019-03-19T08:22:47.006Z,6.30
2019-03-19T08:25:18.682Z,6.03
2019-03-19T08:27:47.336Z,4.50
2019-03-19T08:30:24.789Z,5.43
2019-03-19T08:32:53.683Z,4.93
2019-03-19T08:35:23.853Z,5.83
2019-03-19T08:37:52.446Z,5.63
2019-03-19T08:40:21.554Z,5.97
2019-03-19T08:42:50.186Z,5.20
2019-03-19T08:45:27.806Z,4.50
2019-03-19T08:47:56.326Z,4.70
2019-03-19T08:50:26.194Z,4.40
2019-03-19T08:52:55.561Z,4.90
2019-03-19T08:55:24.332Z,5.03
2019-03-19T08:57:52.900Z,4.87
2019-03-19T09:00:22.631Z,5.83
2019-03-19T09:02:51.194Z,4.67
2019-03-19T09:05:19.780Z,4.77
2019-03-19T09:07:48.399Z,5.80
2019-03-19T09:10:20.678Z,5.03
2019-03-19T09:12:49.247Z,4.50
2019-03-19T09:15:19.176Z,3.37
2019-03-19T09:17:47.751Z,3.77
2019-03-19T09:20:17.274Z,4.43
2019-03-19T09:22:45.903Z,4.37
2019-03-19T09:25:14.507Z,4.30
2019-03-19T09:27:43.226Z,3.77
2019-03-19T09:30:22.929Z,4.27
2019-03-19T09:32:51.489Z,3.87
2019-03-19T09:35:20.143Z,8.40
2019-03-19T09:37:57.750Z,3.80
2019-03-19T09:40:23.197Z,10.40
2019-03-19T09:42:51.801Z,3.80
2019-03-19T09:45:21.580Z,3.47
2019-03-19T09:47:50.140Z,3.47
2019-03-19T09:50:22.901Z,3.77
2019-03-19T09:52:51.455Z,3.00
2019-03-19T09:55:20.028Z,2.83
2019-03-19T09:57:48.583Z,2.87
2019-03-19T10:00:21.607Z,2.47
2019-03-19T10:02:50.417Z,2.70
2019-03-19T10:05:19.431Z,2.40
2019-03-19T10:07:48.133Z,3.30
2019-03-19T10:10:23.475Z,3.67
2019-03-19T10:12:52.081Z,2.30
2019-03-19T10:15:20.827Z,2.67
2019-03-19T10:17:49.458Z,4.77
2019-03-19T10:20:20.141Z,2.87
2019-03-19T10:22:48.638Z,2.30
2019-03-19T10:25:17.461Z,2.37
2019-03-19T10:27:46.103Z,3.60
2019-03-19T10:30:18.847Z,2.27
2019-03-19T10:32:47.552Z,2.40
2019-03-19T10:35:16.305Z,2.27
2019-03-19T10:37:44.866Z,2.00
2019-03-19T10:40:15.019Z,2.80
2019-03-19T10:42:43.651Z,2.30
2019-03-19T10:45:15.306Z,2.07
2019-03-19T10:47:43.878Z,2.53
2019-03-19T10:50:23.243Z,2.43
2019-03-19T10:52:51.825Z,2.87
2019-03-19T10:55:20.489Z,2.57
2019-03-19T10:57:49.097Z,2.27
2019-03-19T11:00:24.641Z,2.33
2019-03-19T11:02:53.642Z,1.90
2019-03-19T11:05:25.719Z,2.50
2019-03-19T11:07:54.461Z,2.10
2019-03-19T11:10:23.118Z,2.27
2019-03-19T11:12:51.751Z,2.83
2019-03-19T11:15:22.434Z,2.27
2019-03-19T11:17:51.248Z,2.07
2019-03-19T11:20:20.462Z,2.47
2019-03-19T11:22:49.173Z,2.70
2019-03-19T11:25:23.708Z,2.23
2019-03-19T11:27:52.348Z,2.20
2019-03-19T11:30:22.475Z,2.50
2019-03-19T11:32:51.197Z,2.63
2019-03-19T11:35:20.227Z,2.70
2019-03-19T11:37:49.270Z,2.33
2019-03-19T11:40:18.794Z,2.40
2019-03-19T11:42:47.541Z,2.77
2019-03-19T11:45:20.763Z,2.03
2019-03-19T11:47:49.354Z,2.20
2019-03-19T11:50:26.331Z,2.90
2019-03-19T11:52:54.914Z,2.40
2019-03-19T11:55:23.474Z,2.10
2019-03-19T11:57:52.133Z,4.43
2019-03-19T12:00:44.483Z,3.17
2019-03-19T12:03:16.461Z,3.00
2019-03-19T12:05:43.520Z,2.20
2019-03-19T12:08:12.178Z,2.90
2019-03-19T12:10:40.806Z,2.10
2019-03-19T12:13:09.391Z,2.27
2019-03-19T12:15:38.027Z,3.17
2019-03-19T12:18:06.846Z,2.27
2019-03-19T12:20:35.422Z,3.50
2019-03-19T12:23:04.354Z,2.43
2019-03-19T12:25:32.992Z,3.63
2019-03-19T12:28:01.584Z,1.97
2019-03-19T12:30:30.151Z,2.33
2019-03-19T12:32:58.752Z,2.30
2019-03-19T12:35:27.388Z,2.33
2019-03-19T12:37:55.978Z,2.07
2019-03-19T12:40:35.922Z,2.60
2019-03-19T12:42:55.022Z,2.37
2019-03-19T12:45:24.255Z,2.50
2019-03-19T12:47:52.840Z,2.50
2019-03-19T12:50:24.909Z,2.30
2019-03-19T12:52:53.509Z,1.97
2019-03-19T12:55:22.140Z,3.00
2019-03-19T12:57:50.882Z,2.33
2019-03-19T13:00:20.982Z,2.77
2019-03-19T13:02:49.638Z,2.77
2019-03-19T13:05:18.351Z,2.70
2019-03-19T13:07:47.019Z,2.40
2019-03-19T13:10:21.230Z,2.50
2019-03-19T13:12:49.810Z,2.20
2019-03-19T13:15:19.698Z,2.47
2019-03-19T13:17:48.564Z,2.83
2019-03-19T13:20:21.887Z,2.53
2019-03-19T13:22:50.489Z,2.40
2019-03-19T13:25:21.194Z,2.73
2019-03-19T13:27:49.775Z,2.90
2019-03-19T13:30:27.113Z,2.63
2019-03-19T13:32:55.713Z,2.80
2019-03-19T13:35:24.289Z,6.07
2019-03-19T13:37:52.894Z,12.67
2019-03-19T13:40:21.534Z,5.87
2019-03-19T13:42:50.202Z,4.63
2019-03-19T13:45:24.831Z,2.77
2019-03-19T13:47:53.485Z,2.70
2019-03-19T13:50:22.784Z,2.53
2019-03-19T13:52:51.458Z,2.60
2019-03-19T13:55:21.182Z,2.33
2019-03-19T13:57:49.836Z,2.70
2019-03-19T14:00:19.043Z,2.63
2019-03-19T14:02:47.627Z,2.53
2019-03-19T14:05:16.739Z,2.60
2019-03-19T14:07:45.406Z,3.23
2019-03-19T14:10:16.078Z,2.70
2019-03-19T14:12:44.730Z,2.67
2019-03-19T14:15:18.452Z,3.30
2019-03-19T14:17:47.052Z,2.80
2019-03-19T14:20:16.454Z,2.60
2019-03-19T14:22:45.668Z,2.60
2019-03-19T14:25:15.465Z,2.20
2019-03-19T14:27:44.392Z,2.77
2019-03-19T14:30:22.668Z,2.83
2019-03-19T14:32:51.327Z,3.13
2019-03-19T14:35:19.953Z,3.00
2019-03-19T14:37:48.560Z,3.00
2019-03-19T14:40:20.193Z,3.77
2019-03-19T14:42:49.218Z,2.50
2019-03-19T14:45:18.322Z,2.40
2019-03-19T14:47:46.910Z,2.83
2019-03-19T14:50:23.382Z,2.67
2019-03-19T14:52:51.910Z,2.93
2019-03-19T14:55:20.552Z,3.10
2019-03-19T14:57:50.930Z,3.00
2019-03-19T15:00:21.546Z,2.40
2019-03-19T15:02:50.213Z,2.30
2019-03-19T15:05:18.847Z,2.70
2019-03-19T15:07:47.430Z,3.80
2019-03-19T15:10:17.142Z,2.93
2019-03-19T15:12:45.801Z,2.70
2019-03-19T15:15:16.376Z,2.77
2019-03-19T15:17:45.130Z,2.77
2019-03-19T15:20:18.257Z,3.20
2019-03-19T15:22:46.919Z,2.77
2019-03-19T15:25:17.295Z,3.67
2019-03-19T15:27:45.959Z,5.50
2019-03-19T15:30:21.026Z,3.97
2019-03-19T15:32:49.689Z,3.03
2019-03-19T15:35:18.259Z,3.40
2019-03-19T15:37:46.905Z,3.17
2019-03-19T15:40:16.511Z,3.10
2019-03-19T15:42:45.256Z,3.03
2019-03-19T15:45:16.418Z,2.80
2019-03-19T15:47:45.010Z,3.47
2019-03-19T15:50:15.515Z,3.73
2019-03-19T15:52:44.337Z,3.03
2019-03-19T15:55:14.158Z,2.60
2019-03-19T15:57:42.802Z,3.20
2019-03-19T16:00:16.111Z,3.37
2019-03-19T16:02:44.834Z,2.87
2019-03-19T16:05:13.943Z,3.37
2019-03-19T16:07:42.643Z,3.47
2019-03-19T16:10:15.961Z,2.90
2019-03-19T16:12:44.609Z,2.90
2019-03-19T16:15:20.912Z,3.17
2019-03-19T16:17:49.644Z,3.17
2019-03-19T16:20:19.174Z,3.10
2019-03-19T16:22:47.770Z,2.80
2019-03-19T16:25:16.399Z,3.37
2019-03-19T16:27:45.042Z,3.37
2019-03-19T16:30:15.166Z,3.20
2019-03-19T16:32:43.896Z,3.33
2019-03-19T16:35:13.415Z,5.30
2019-03-19T16:37:42.109Z,5.53
2019-03-19T16:40:13.692Z,3.90
2019-03-19T16:42:42.338Z,3.63
2019-03-19T16:45:11.762Z,4.37
2019-03-19T16:47:40.392Z,3.40
2019-03-19T16:50:11.746Z,3.50
2019-03-19T16:52:40.374Z,3.77
2019-03-19T16:55:11.494Z,3.00
2019-03-19T16:57:40.046Z,3.90
2019-03-19T17:00:14.174Z,4.27
2019-03-19T17:02:42.737Z,3.60
2019-03-19T17:05:11.755Z,3.60
2019-03-19T17:07:40.381Z,3.03
2019-03-19T17:10:14.330Z,3.27
2019-03-19T17:12:42.821Z,3.67
2019-03-19T17:15:13.539Z,2.90
2019-03-19T17:17:42.111Z,3.60
2019-03-19T17:20:12.762Z,3.77
2019-03-19T17:22:41.429Z,3.37
2019-03-19T17:25:17.478Z,4.70
2019-03-19T17:27:46.173Z,5.27
2019-03-19T17:30:25.527Z,5.17
2019-03-19T17:32:54.095Z,4.33
2019-03-19T17:35:22.758Z,4.93
2019-03-19T17:37:51.429Z,3.73
2019-03-19T17:40:20.166Z,3.97
2019-03-19T17:42:48.801Z,3.53
2019-03-19T17:45:17.818Z,3.70
2019-03-19T17:47:46.448Z,3.97
2019-03-19T17:50:36.388Z,3.43
2019-03-19T17:53:05.273Z,3.83
2019-03-19T17:55:33.869Z,3.67
2019-03-19T17:58:02.454Z,4.27
2019-03-19T18:00:32.683Z,3.97
2019-03-19T18:03:01.253Z,4.27
2019-03-19T18:05:29.832Z,4.07
2019-03-19T18:07:58.394Z,4.73
2019-03-19T18:10:26.906Z,5.03
2019-03-19T18:12:55.462Z,4.63
2019-03-19T18:15:24.115Z,4.80
2019-03-19T18:17:52.601Z,5.10
2019-03-19T18:20:21.190Z,4.43
2019-03-19T18:22:50.115Z,5.47
2019-03-19T18:25:20.365Z,6.73
2019-03-19T18:27:48.993Z,4.83
2019-03-19T18:30:18.542Z,5.43
2019-03-19T18:32:47.166Z,5.33
2019-03-19T18:35:15.688Z,5.07
2019-03-19T18:37:44.373Z,7.00
2019-03-19T18:40:19.172Z,6.60
2019-03-19T18:42:47.809Z,5.43
2019-03-19T18:45:21.305Z,6.53
2019-03-19T18:47:49.870Z,5.53
2019-03-19T18:50:22.230Z,6.47
2019-03-19T18:52:50.803Z,11.23
2019-03-19T18:55:19.393Z,10.00
2019-03-19T18:57:47.895Z,11.47
2019-03-19T19:00:20.370Z,10.87
2019-03-19T19:02:50.530Z,12.30
2019-03-19T19:05:20.239Z,11.67
2019-03-19T19:07:48.807Z,11.77
2019-03-19T19:10:21.487Z,12.47
2019-03-19T19:12:50.366Z,13.00
2019-03-19T19:15:23.381Z,12.97
2019-03-19T19:17:52.010Z,12.77
2019-03-19T19:20:20.869Z,13.47
2019-03-19T19:22:49.518Z,12.67
2019-03-19T19:25:25.011Z,18.33
2019-03-19T19:27:53.581Z,17.70
2019-03-19T19:30:26.275Z,14.90
2019-03-19T19:33:01.445Z,15.23
2019-03-19T19:35:25.078Z,16.77
2019-03-19T19:37:53.650Z,26.30
2019-03-19T19:40:22.313Z,19.83
2019-03-19T19:42:50.878Z,18.63
2019-03-19T19:45:19.915Z,19.10
2019-03-19T19:47:48.478Z,17.03
2019-03-19T19:50:18.318Z,23.43
2019-03-19T19:52:46.892Z,33.73
2019-03-19T19:55:15.818Z,29.57
2019-03-19T19:57:44.679Z,26.53
2019-03-19T20:00:20.125Z,24.57
2019-03-19T20:02:48.883Z,19.87
2019-03-19T20:05:17.558Z,16.63
2019-03-19T20:07:46.253Z,15.63
2019-03-19T20:10:23.107Z,15.60
2019-03-19T20:12:51.693Z,13.03
2019-03-19T20:15:20.277Z,11.93
2019-03-19T20:17:48.781Z,12.03
2019-03-19T20:20:25.146Z,12.50
2019-03-19T20:22:53.789Z,11.87
2019-03-19T20:25:22.378Z,12.50
2019-03-19T20:27:50.954Z,13.80
2019-03-19T20:30:21.750Z,17.77
2019-03-19T20:32:50.336Z,19.40
2019-03-19T20:35:19.004Z,15.77
2019-03-19T20:37:47.561Z,12.03
2019-03-19T20:40:16.581Z,10.87
2019-03-19T20:42:45.227Z,11.50
2019-03-19T20:45:24.139Z,11.50
2019-03-19T20:47:52.713Z,10.77
2019-03-19T20:50:23.895Z,11.40
2019-03-19T20:52:52.462Z,10.90
2019-03-19T20:55:20.980Z,11.07
2019-03-19T20:57:49.623Z,10.30
2019-03-19T21:00:18.866Z,11.07
2019-03-19T21:02:47.435Z,10.83
2019-03-19T21:05:16.046Z,11.17
2019-03-19T21:07:44.598Z,10.33
2019-03-19T21:10:21.371Z,10.33
2019-03-19T21:12:50.023Z,9.63
2019-03-19T21:15:24.744Z,10.07
2019-03-19T21:17:53.483Z,10.33
2019-03-19T21:20:22.210Z,10.87
2019-03-19T21:22:50.743Z,10.00
2019-03-19T21:25:19.381Z,10.93
2019-03-19T21:27:48.117Z,10.60
2019-03-19T21:30:23.725Z,10.00
2019-03-19T21:32:52.414Z,10.90
2019-03-19T21:35:25.919Z,11.73
2019-03-19T21:37:54.496Z,11.33
2019-03-19T21:40:23.088Z,11.10
2019-03-19T21:42:51.661Z,12.23
2019-03-19T21:45:21.179Z,11.40
2019-03-19T21:47:49.842Z,11.67
2019-03-19T21:50:20.614Z,11.30
2019-03-19T21:52:49.270Z,11.13
2019-03-19T21:55:17.982Z,11.13
2019-03-19T21:57:46.503Z,11.53
2019-03-19T22:00:19.478Z,10.10
2019-03-19T22:02:48.130Z,10.00
2019-03-19T22:05:16.633Z,10.73
2019-03-19T22:07:45.211Z,10.90
2019-03-19T22:10:16.926Z,11.07
2019-03-19T22:12:45.456Z,11.13
2019-03-19T22:15:18.981Z,12.23
2019-03-19T22:17:47.569Z,10.97
2019-03-19T22:20:16.482Z,11.20
2019-03-19T22:22:44.999Z,11.13
2019-03-19T22:25:14.815Z,11.47
2019-03-19T22:27:43.636Z,11.27
2019-03-19T22:30:15.118Z,11.77
2019-03-19T22:32:43.778Z,11.17
2019-03-19T22:35:12.492Z,11.63
2019-03-19T22:37:41.155Z,12.20
2019-03-19T22:40:17.677Z,10.93
2019-03-19T22:42:46.502Z,11.70
2019-03-19T22:45:18.668Z,11.93
2019-03-19T22:47:47.388Z,11.83
2019-03-19T22:50:19.335Z,11.33
2019-03-19T22:52:47.998Z,11.50
2019-03-19T22:55:24.615Z,11.80
2019-03-19T22:57:46.973Z,10.43
2019-03-19T23:00:33.495Z,10.43
2019-03-19T23:03:02.149Z,18.90
2019-03-19T23:05:30.798Z,12.73
2019-03-19T23:07:59.465Z,11.33
2019-03-19T23:10:28.098Z,10.33
2019-03-19T23:12:56.699Z,10.83
2019-03-19T23:15:25.331Z,10.03
2019-03-19T23:17:53.923Z,11.00
2019-03-19T23:20:22.828Z,9.97
2019-03-19T23:22:51.551Z,10.77
2019-03-19T23:25:20.049Z,10.47
2019-03-19T23:27:48.639Z,10.77
2019-03-19T23:30:18.851Z,10.87
2019-03-19T23:32:47.445Z,10.27
2019-03-19T23:35:16.084Z,10.93
2019-03-19T23:37:44.667Z,10.80
2019-03-19T23:40:15.174Z,10.10
2019-03-19T23:42:43.901Z,11.07
2019-03-19T23:45:13.307Z,9.93
2019-03-19T23:47:41.988Z,10.20
2019-03-19T23:50:18.234Z,10.97
2019-03-19T23:52:46.823Z,11.20
2019-03-19T23:55:15.389Z,11.47
2019-03-19T23:57:43.912Z,11.83
